Time;durP1;ratioP1;P1;durP2;ratioP2;P2;SDS_P1;SDS_P2;PMS_P1;PMS_P2;Temp;Humidity;BMP_temperature;BMP_pressure;BME280_temperature;BME280_humidity;BME280_pressure;Samples;Min_cycle;Max_cycle;Signal;HPM_P1;HPM_P2
2023/09/03 00:00:41;;;;;;;;;;;18.00;62.10;;;;;;5031175;28;19921;-67
2023/09/03 00:03:06;;;;;;;;;;;17.90;62.10;;;;;;5030807;28;19920;-67
2023/09/03 00:05:35;;;;;;;;;;;17.90;62.10;;;;;;5031235;28;19921;-67
2023/09/03 00:08:00;;;;;;;;;;;17.80;62.10;;;;;;5030831;28;19909;-67
2023/09/03 00:10:26;;;;;;;;;;;17.80;62.20;;;;;;5030834;28;20398;-67
2023/09/03 00:12:51;;;;;;;;;;;17.80;62.20;;;;;;5030986;28;19963;-67
2023/09/03 00:15:21;;;;;;;;;;;17.80;62.10;;;;;;5030033;28;19928;-67
2023/09/03 00:17:47;;;;;;;;;;;17.80;62.20;;;;;;5030911;28;19909;-68
2023/09/03 00:20:13;;;;;;;;;;;17.70;62.30;;;;;;5030629;28;19924;-67
2023/09/03 00:22:39;;;;;;;;;;;17.70;62.30;;;;;;5030415;28;19909;-67
2023/09/03 00:25:05;;;;;;;;;;;17.70;62.30;;;;;;5029217;28;19939;-67
2023/09/03 00:27:31;;;;;;;;;;;17.60;62.30;;;;;;5030431;28;20012;-67
2023/09/03 00:29:57;;;;;;;;;;;17.60;62.40;;;;;;5030683;28;20369;-68
2023/09/03 00:32:22;;;;;;;;;;;17.60;62.60;;;;;;5030544;28;19920;-67
2023/09/03 00:34:48;;;;;;;;;;;17.50;62.70;;;;;;5030492;28;19944;-67
2023/09/03 00:37:13;;;;;;;;;;;17.50;62.70;;;;;;5030134;28;19909;-67
2023/09/03 00:39:38;;;;;;;;;;;17.50;62.80;;;;;;5030627;28;19924;-67
2023/09/03 00:42:04;;;;;;;;;;;17.50;62.80;;;;;;5030374;28;19913;-67
2023/09/03 00:44:29;;;;;;;;;;;17.50;62.80;;;;;;5030706;28;19919;-67
2023/09/03 00:46:55;;;;;;;;;;;17.50;62.90;;;;;;5030422;28;19917;-67
2023/09/03 00:49:21;;;;;;;;;;;17.50;62.80;;;;;;5030248;28;20007;-67
2023/09/03 00:51:47;;;;;;;;;;;17.50;62.60;;;;;;5030049;28;20470;-67
2023/09/03 00:54:13;;;;;;;;;;;17.40;62.60;;;;;;5030172;28;19952;-67
2023/09/03 00:56:39;;;;;;;;;;;17.30;62.50;;;;;;5029750;28;19917;-67
2023/09/03 00:59:05;;;;;;;;;;;17.30;62.60;;;;;;5030133;28;20004;-67
2023/09/03 01:01:30;;;;;;;;;;;17.30;62.60;;;;;;5028227;28;20288;-67
2023/09/03 01:03:56;;;;;;;;;;;17.30;62.60;;;;;;5030089;28;19941;-64
2023/09/03 01:06:23;;;;;;;;;;;17.20;62.70;;;;;;5029872;28;19916;-65
2023/09/03 01:08:49;;;;;;;;;;;17.10;63.00;;;;;;5030081;28;19919;-65
2023/09/03 01:11:14;;;;;;;;;;;17.10;63.10;;;;;;5029873;28;19913;-65
2023/09/03 01:13:53;;;;;;;;;;;17.10;63.10;;;;;;5029300;28;19956;-65
2023/09/03 01:16:40;;;;;;;;;;;17.10;63.20;;;;;;5029415;28;20320;-66
2023/09/03 01:19:12;;;;;;;;;;;17.10;63.20;;;;;;5028706;28;19921;-64
2023/09/03 01:21:46;;;;;;;;;;;17.00;63.20;;;;;;5029916;28;19913;-66
2023/09/03 01:24:15;;;;;;;;;;;17.10;63.10;;;;;;5029808;28;19924;-65
2023/09/03 01:26:50;;;;;;;;;;;17.00;63.10;;;;;;5029526;28;19909;-64
2023/09/03 01:29:16;;;;;;;;;;;17.00;63.20;;;;;;5029757;28;20379;-68
2023/09/03 01:31:43;;;;;;;;;;;17.00;63.20;;;;;;5029680;28;20368;-66
2023/09/03 01:34:08;;;;;;;;;;;16.90;63.20;;;;;;5029634;28;19940;-68
2023/09/03 01:36:34;;;;;;;;;;;16.90;63.20;;;;;;5029600;28;20365;-65
2023/09/03 01:39:03;;;;;;;;;;;16.90;63.30;;;;;;5030205;28;20313;-66
2023/09/03 01:41:32;;;;;;;;;;;16.80;63.30;;;;;;5029886;28;19913;-67
2023/09/03 01:43:58;;;;;;;;;;;16.80;63.40;;;;;;5029918;28;19913;-67
2023/09/03 01:46:26;;;;;;;;;;;16.80;63.50;;;;;;5029495;28;19913;-67
2023/09/03 01:48:54;;;;;;;;;;;16.80;63.50;;;;;;5029074;28;20360;-67
2023/09/03 01:51:39;;;;;;;;;;;16.80;63.50;;;;;;5029507;28;19967;-67
2023/09/03 01:54:10;;;;;;;;;;;16.80;63.50;;;;;;5029622;28;19925;-67
2023/09/03 01:56:39;;;;;;;;;;;16.80;63.60;;;;;;5029415;28;20365;-66
2023/09/03 01:59:07;;;;;;;;;;;16.80;63.70;;;;;;5029497;28;19929;-67
2023/09/03 02:01:33;;;;;;;;;;;16.70;63.80;;;;;;5029485;28;19909;-67
2023/09/03 02:03:59;;;;;;;;;;;16.70;63.90;;;;;;5029604;28;19959;-67
2023/09/03 02:06:24;;;;;;;;;;;16.70;63.90;;;;;;5029424;28;19920;-67
2023/09/03 02:08:50;;;;;;;;;;;16.70;64.00;;;;;;5029043;28;20316;-67
2023/09/03 02:11:15;;;;;;;;;;;16.60;64.00;;;;;;5029322;28;19921;-67
2023/09/03 02:13:41;;;;;;;;;;;16.60;64.10;;;;;;5030673;28;19909;-66
2023/09/03 02:16:06;;;;;;;;;;;16.60;64.00;;;;;;5032920;28;19917;-66
2023/09/03 02:18:32;;;;;;;;;;;16.60;64.00;;;;;;5033158;28;19916;-68
2023/09/03 02:20:57;;;;;;;;;;;16.50;64.00;;;;;;5033240;28;19921;-67
2023/09/03 02:23:23;;;;;;;;;;;16.50;64.00;;;;;;5032748;28;19913;-68
2023/09/03 02:25:58;;;;;;;;;;;16.50;64.20;;;;;;5032631;28;19917;-67
2023/09/03 02:28:23;;;;;;;;;;;16.40;64.30;;;;;;5032746;28;19939;-68
2023/09/03 02:30:49;;;;;;;;;;;16.40;64.40;;;;;;5033043;28;19933;-67
2023/09/03 02:33:14;;;;;;;;;;;16.30;64.30;;;;;;5032688;28;19909;-67
2023/09/03 02:35:40;;;;;;;;;;;16.30;64.20;;;;;;5032757;28;20036;-68
2023/09/03 02:38:05;;;;;;;;;;;16.30;64.20;;;;;;5032808;28;19913;-67
2023/09/03 02:40:30;;;;;;;;;;;16.30;64.20;;;;;;5032424;28;20047;-67
2023/09/03 02:42:56;;;;;;;;;;;16.30;64.40;;;;;;5032557;28;19914;-67
2023/09/03 02:45:22;;;;;;;;;;;16.20;64.50;;;;;;5032865;28;19923;-67
2023/09/03 02:47:47;;;;;;;;;;;16.20;64.40;;;;;;5032347;28;20229;-68
2023/09/03 02:50:13;;;;;;;;;;;16.20;64.50;;;;;;5032681;28;19917;-67
2023/09/03 02:52:38;;;;;;;;;;;16.20;64.50;;;;;;5032442;28;19924;-67
2023/09/03 02:55:04;;;;;;;;;;;16.20;64.60;;;;;;5032397;28;19917;-66
2023/09/03 02:57:29;;;;;;;;;;;16.10;64.50;;;;;;5032191;28;19924;-67
2023/09/03 02:59:55;;;;;;;;;;;16.10;64.50;;;;;;5032083;28;19952;-67
2023/09/03 03:02:20;;;;;;;;;;;16.10;64.60;;;;;;5032485;28;19913;-66
2023/09/03 03:04:46;;;;;;;;;;;16.00;64.70;;;;;;5032141;28;20028;-66
2023/09/03 03:07:11;;;;;;;;;;;16.00;65.00;;;;;;5032394;28;19962;-67
2023/09/03 03:09:36;;;;;;;;;;;16.00;65.10;;;;;;5032156;28;20063;-67
2023/09/03 03:12:02;;;;;;;;;;;16.00;65.10;;;;;;5031824;28;19928;-66
2023/09/03 03:14:27;;;;;;;;;;;16.00;65.20;;;;;;5031552;28;19925;-67
2023/09/03 03:16:53;;;;;;;;;;;16.00;65.20;;;;;;5032168;28;20020;-67
2023/09/03 03:19:18;;;;;;;;;;;16.00;65.20;;;;;;5031886;28;20040;-67
2023/09/03 03:21:44;;;;;;;;;;;15.90;65.20;;;;;;5031986;28;19936;-67
2023/09/03 03:24:09;;;;;;;;;;;15.80;65.10;;;;;;5031600;28;19956;-67
2023/09/03 03:26:35;;;;;;;;;;;15.80;65.00;;;;;;5031747;28;19913;-67
2023/09/03 03:29:00;;;;;;;;;;;15.80;65.00;;;;;;5031664;28;20365;-67
2023/09/03 03:31:26;;;;;;;;;;;15.70;65.20;;;;;;5031529;28;20360;-67
2023/09/03 03:33:51;;;;;;;;;;;15.80;65.50;;;;;;5031064;28;19919;-67
2023/09/03 03:36:17;;;;;;;;;;;15.70;65.60;;;;;;5031836;28;19913;-67
2023/09/03 03:38:43;;;;;;;;;;;15.70;65.50;;;;;;5031328;28;20000;-67
2023/09/03 03:41:10;;;;;;;;;;;15.70;65.50;;;;;;5031540;28;20004;-67
2023/09/03 03:43:36;;;;;;;;;;;15.60;65.40;;;;;;5031266;28;19909;-67
2023/09/03 03:46:01;;;;;;;;;;;15.60;65.30;;;;;;5031767;28;20368;-67
2023/09/03 03:48:27;;;;;;;;;;;15.50;65.40;;;;;;5031008;28;19924;-68
2023/09/03 03:50:56;;;;;;;;;;;15.50;65.70;;;;;;5030870;28;20315;-67
2023/09/03 03:53:21;;;;;;;;;;;15.40;65.70;;;;;;5031372;28;20369;-67
2023/09/03 03:55:47;;;;;;;;;;;15.40;65.80;;;;;;5031490;28;19947;-67
2023/09/03 03:58:12;;;;;;;;;;;15.30;65.90;;;;;;5031103;28;19939;-67
2023/09/03 04:00:37;;;;;;;;;;;15.30;66.00;;;;;;5030798;28;19921;-67
2023/09/03 04:03:03;;;;;;;;;;;15.30;66.00;;;;;;5031000;28;20326;-67
2023/09/03 04:05:29;;;;;;;;;;;15.30;66.10;;;;;;5031314;28;19940;-67
2023/09/03 04:07:54;;;;;;;;;;;15.30;66.10;;;;;;5030818;28;19909;-67
2023/09/03 04:10:20;;;;;;;;;;;15.20;66.20;;;;;;5031533;28;20357;-67
2023/09/03 04:12:45;;;;;;;;;;;15.30;66.20;;;;;;5030684;28;19949;-67
2023/09/03 04:15:10;;;;;;;;;;;15.30;66.20;;;;;;5031103;28;20281;-67
2023/09/03 04:17:36;;;;;;;;;;;15.20;66.20;;;;;;5030591;28;19975;-67
2023/09/03 04:20:01;;;;;;;;;;;15.20;66.20;;;;;;5030751;28;20423;-67
2023/09/03 04:22:27;;;;;;;;;;;15.10;66.20;;;;;;5030998;28;20379;-67
2023/09/03 04:24:52;;;;;;;;;;;15.10;66.40;;;;;;5031011;28;19928;-67
2023/09/03 04:27:18;;;;;;;;;;;15.20;66.50;;;;;;5030988;28;19995;-67
2023/09/03 04:29:43;;;;;;;;;;;15.10;66.60;;;;;;5030792;28;19921;-67
2023/09/03 04:32:09;;;;;;;;;;;15.10;66.50;;;;;;5030440;28;19913;-67
2023/09/03 04:34:34;;;;;;;;;;;15.10;66.60;;;;;;5030252;28;19921;-67
2023/09/03 04:37:00;;;;;;;;;;;15.10;66.70;;;;;;5029967;28;19909;-67
2023/09/03 04:39:25;;;;;;;;;;;15.10;66.80;;;;;;5030612;28;19917;-68
2023/09/03 04:41:50;;;;;;;;;;;15.10;66.90;;;;;;5030292;28;19913;-67
2023/09/03 04:44:16;;;;;;;;;;;15.10;67.00;;;;;;5030438;28;20021;-68
2023/09/03 04:46:42;;;;;;;;;;;15.10;67.10;;;;;;5030326;28;19916;-68
2023/09/03 04:49:07;;;;;;;;;;;15.10;67.10;;;;;;5029923;28;19924;-68
2023/09/03 04:51:34;;;;;;;;;;;15.10;67.20;;;;;;5030346;28;19967;-68
2023/09/03 04:54:00;;;;;;;;;;;15.10;67.30;;;;;;5030831;28;20360;-68
2023/09/03 04:56:26;;;;;;;;;;;15.20;67.30;;;;;;5030230;28;19909;-67
2023/09/03 04:58:52;;;;;;;;;;;15.20;67.20;;;;;;5030293;28;20353;-68
2023/09/03 05:01:17;;;;;;;;;;;15.20;67.20;;;;;;5030060;28;20015;-69
2023/09/03 05:03:43;;;;;;;;;;;15.20;67.20;;;;;;5030183;28;19909;-68
2023/09/03 05:06:17;;;;;;;;;;;15.20;67.40;;;;;;5030198;28;20039;-69
2023/09/03 05:08:43;;;;;;;;;;;15.20;67.50;;;;;;5030096;28;20391;-69
2023/09/03 05:11:11;;;;;;;;;;;15.30;67.60;;;;;;5030212;28;19971;-68
2023/09/03 05:13:37;;;;;;;;;;;15.30;67.80;;;;;;5030134;28;19916;-68
2023/09/03 05:16:02;;;;;;;;;;;15.40;67.90;;;;;;5030603;28;20368;-68
2023/09/03 05:18:28;;;;;;;;;;;15.40;68.00;;;;;;5030150;28;19913;-67
2023/09/03 05:20:54;;;;;;;;;;;15.40;68.00;;;;;;5030175;28;20390;-69
2023/09/03 05:23:19;;;;;;;;;;;15.50;68.00;;;;;;5029828;28;20399;-68
2023/09/03 05:25:45;;;;;;;;;;;15.50;67.90;;;;;;5029681;28;20016;-68
2023/09/03 05:28:10;;;;;;;;;;;15.50;68.00;;;;;;5029985;28;19913;-68
2023/09/03 05:30:36;;;;;;;;;;;15.60;68.20;;;;;;5030510;28;20377;-68
2023/09/03 05:33:01;;;;;;;;;;;15.70;68.40;;;;;;5030044;28;20015;-68
2023/09/03 05:35:27;;;;;;;;;;;15.80;68.80;;;;;;5030058;28;19918;-68
2023/09/03 05:37:52;;;;;;;;;;;15.90;69.20;;;;;;5029879;28;20000;-68
2023/09/03 05:40:18;;;;;;;;;;;16.10;69.40;;;;;;5030168;28;19928;-67
2023/09/03 05:42:43;;;;;;;;;;;16.20;69.60;;;;;;5029725;28;20328;-68
2023/09/03 05:45:09;;;;;;;;;;;16.40;69.70;;;;;;5028611;28;19918;-68
2023/09/03 05:47:34;;;;;;;;;;;16.60;69.60;;;;;;5031303;28;20003;-68
2023/09/03 05:50:00;;;;;;;;;;;16.70;69.40;;;;;;5032052;28;20277;-68
2023/09/03 05:52:25;;;;;;;;;;;16.80;69.30;;;;;;5033290;28;19924;-68
2023/09/03 05:54:51;;;;;;;;;;;16.80;69.20;;;;;;5033500;28;19952;-68
2023/09/03 05:57:16;;;;;;;;;;;16.90;69.10;;;;;;5033433;28;20417;-69
2023/09/03 05:59:42;;;;;;;;;;;17.00;69.10;;;;;;5033307;28;19924;-68
2023/09/03 06:02:07;;;;;;;;;;;17.10;69.00;;;;;;5033264;28;20350;-68
2023/09/03 06:04:32;;;;;;;;;;;17.10;68.90;;;;;;5033412;28;19932;-68
2023/09/03 06:06:58;;;;;;;;;;;17.20;68.70;;;;;;5033174;28;19959;-68
2023/09/03 06:09:24;;;;;;;;;;;17.20;68.60;;;;;;5033193;28;19928;-68
2023/09/03 06:11:49;;;;;;;;;;;17.20;68.60;;;;;;5033036;28;19913;-68
2023/09/03 06:14:15;;;;;;;;;;;17.30;68.70;;;;;;5033352;28;19917;-68
2023/09/03 06:16:41;;;;;;;;;;;17.40;69.00;;;;;;5032901;28;19909;-68
2023/09/03 06:19:06;;;;;;;;;;;17.50;69.40;;;;;;5031440;28;20063;-68
2023/09/03 06:21:32;;;;;;;;;;;17.60;69.70;;;;;;5033357;28;19909;-68
2023/09/03 06:23:57;;;;;;;;;;;17.80;70.00;;;;;;5033029;28;19920;-68
2023/09/03 06:26:22;;;;;;;;;;;17.80;70.00;;;;;;5032842;28;20016;-68
2023/09/03 06:28:48;;;;;;;;;;;18.00;70.10;;;;;;5033038;28;19909;-68
2023/09/03 06:31:13;;;;;;;;;;;18.10;70.00;;;;;;5032860;28;19921;-68
2023/09/03 06:33:39;;;;;;;;;;;18.20;70.00;;;;;;5032836;28;20405;-68
2023/09/03 06:36:04;;;;;;;;;;;18.30;70.00;;;;;;5033023;28;20008;-67
2023/09/03 06:38:30;;;;;;;;;;;18.30;70.00;;;;;;5032302;28;19916;-68
2023/09/03 06:40:55;;;;;;;;;;;18.40;70.20;;;;;;5032813;28;20264;-68
2023/09/03 06:43:21;;;;;;;;;;;18.50;70.30;;;;;;5031303;28;19909;-68
2023/09/03 06:45:46;;;;;;;;;;;18.70;70.30;;;;;;5032480;28;19978;-67
2023/09/03 06:48:12;;;;;;;;;;;18.90;70.70;;;;;;5032381;28;20312;-68
2023/09/03 06:50:41;;;;;;;;;;;19.20;71.50;;;;;;5032266;28;19976;-68
2023/09/03 06:53:07;;;;;;;;;;;19.70;72.90;;;;;;5032673;28;19940;-68
2023/09/03 06:55:32;;;;;;;;;;;20.20;72.60;;;;;;5032180;28;19971;-67
2023/09/03 06:57:58;;;;;;;;;;;20.70;72.60;;;;;;5032325;28;19913;-67
2023/09/03 07:00:23;;;;;;;;;;;21.20;73.40;;;;;;5032126;28;20248;-67
2023/09/03 07:02:49;;;;;;;;;;;21.90;74.10;;;;;;5032200;28;19949;-68
2023/09/03 07:05:14;;;;;;;;;;;22.50;73.00;;;;;;5032334;28;19971;-68
2023/09/03 07:07:40;;;;;;;;;;;22.90;71.90;;;;;;5032067;28;19909;-66
2023/09/03 07:10:06;;;;;;;;;;;23.10;71.00;;;;;;5032240;28;20368;-65
2023/09/03 07:12:31;;;;;;;;;;;23.30;70.40;;;;;;5032009;28;19913;-66
2023/09/03 07:14:56;;;;;;;;;;;23.70;72.20;;;;;;5032215;28;19918;-66
2023/09/03 07:17:22;;;;;;;;;;;24.30;72.80;;;;;;5032023;28;19909;-66
2023/09/03 07:19:47;;;;;;;;;;;24.90;72.60;;;;;;5031781;28;19928;-66
2023/09/03 07:22:13;;;;;;;;;;;25.40;71.30;;;;;;5031701;28;19920;-66
2023/09/03 07:24:38;;;;;;;;;;;25.80;70.50;;;;;;5030546;28;19917;-66
2023/09/03 07:27:04;;;;;;;;;;;26.10;69.80;;;;;;5031674;28;19913;-65
2023/09/03 07:29:29;;;;;;;;;;;26.30;69.70;;;;;;5031938;28;19917;-65
2023/09/03 07:31:55;;;;;;;;;;;26.50;69.40;;;;;;5031136;28;20015;-66
2023/09/03 07:34:20;;;;;;;;;;;26.70;69.10;;;;;;5031389;28;19917;-65
2023/09/03 07:36:46;;;;;;;;;;;26.90;69.20;;;;;;5031433;28;20316;-65
2023/09/03 07:39:11;;;;;;;;;;;27.20;69.50;;;;;;5031497;28;19960;-66
2023/09/03 07:41:37;;;;;;;;;;;27.50;69.50;;;;;;5031372;28;20300;-66
2023/09/03 07:44:03;;;;;;;;;;;28.00;70.00;;;;;;5031534;28;20281;-66
2023/09/03 07:46:29;;;;;;;;;;;28.30;68.70;;;;;;5031048;28;19967;-66
2023/09/03 07:48:54;;;;;;;;;;;28.70;69.20;;;;;;5030908;28;19909;-66
2023/09/03 07:51:20;;;;;;;;;;;29.20;69.90;;;;;;5030852;28;20307;-67
2023/09/03 07:53:49;;;;;;;;;;;29.70;69.00;;;;;;5031047;28;19921;-66
2023/09/03 07:56:15;;;;;;;;;;;30.20;69.30;;;;;;5031061;28;19909;-66
2023/09/03 07:58:42;;;;;;;;;;;30.60;69.20;;;;;;5030943;28;20414;-67
2023/09/03 08:01:10;;;;;;;;;;;31.10;69.20;;;;;;5031610;28;19917;-67
2023/09/03 08:03:36;;;;;;;;;;;31.70;69.00;;;;;;5031113;28;19916;-67
2023/09/03 08:06:02;;;;;;;;;;;32.20;68.50;;;;;;5030877;28;20288;-67
2023/09/03 08:08:27;;;;;;;;;;;32.70;68.10;;;;;;5029130;28;20026;-67
2023/09/03 08:10:54;;;;;;;;;;;33.20;67.90;;;;;;5030318;28;19920;-66
2023/09/03 08:13:19;;;;;;;;;;;33.70;66.40;;;;;;5030765;28;19909;-67
2023/09/03 08:15:44;;;;;;;;;;;34.10;65.10;;;;;;5030515;28;19944;-67
2023/09/03 08:18:10;;;;;;;;;;;34.30;64.40;;;;;;5030954;28;19910;-67
2023/09/03 08:20:35;;;;;;;;;;;34.40;62.40;;;;;;5030847;28;19951;-67
2023/09/03 08:23:01;;;;;;;;;;;34.40;62.20;;;;;;5030749;28;19916;-66
2023/09/03 08:25:27;;;;;;;;;;;34.50;60.90;;;;;;5030467;28;19967;-67
2023/09/03 08:27:53;;;;;;;;;;;34.70;61.40;;;;;;5030833;28;19909;-65
2023/09/03 08:30:18;;;;;;;;;;;34.90;60.80;;;;;;5030660;28;20375;-66
2023/09/03 08:32:44;;;;;;;;;;;35.20;60.00;;;;;;5030545;28;19999;-66
2023/09/03 08:35:09;;;;;;;;;;;35.50;60.30;;;;;;5030929;28;19917;-66
2023/09/03 08:37:35;;;;;;;;;;;35.90;61.30;;;;;;5030176;28;19917;-67
2023/09/03 08:40:00;;;;;;;;;;;36.20;58.10;;;;;;5030634;28;19917;-67
2023/09/03 08:42:26;;;;;;;;;;;36.40;57.00;;;;;;5030344;28;19916;-67
2023/09/03 08:44:53;;;;;;;;;;;36.60;55.10;;;;;;5030070;28;19987;-67
2023/09/03 08:47:19;;;;;;;;;;;36.40;53.00;;;;;;5030208;28;20381;-67
2023/09/03 08:49:47;;;;;;;;;;;36.40;53.40;;;;;;5030556;28;19948;-67
2023/09/03 08:52:13;;;;;;;;;;;36.70;53.40;;;;;;5030186;28;19924;-67
2023/09/03 08:54:39;;;;;;;;;;;36.80;51.40;;;;;;5030239;28;19924;-67
2023/09/03 08:57:05;;;;;;;;;;;36.90;49.90;;;;;;5030134;28;19909;-67
2023/09/03 08:59:31;;;;;;;;;;;37.20;48.30;;;;;;5029927;28;19948;-68
2023/09/03 09:01:57;;;;;;;;;;;37.60;47.90;;;;;;5029949;28;19952;-67
2023/09/03 09:04:25;;;;;;;;;;;37.80;45.40;;;;;;5030130;28;20424;-67
2023/09/03 09:06:51;;;;;;;;;;;37.80;43.50;;;;;;5030072;28;19991;-68
2023/09/03 09:09:16;;;;;;;;;;;37.90;42.20;;;;;;5030329;28;20413;-67
2023/09/03 09:11:45;;;;;;;;;;;38.00;41.00;;;;;;5029860;28;20011;-66
2023/09/03 09:14:21;;;;;;;;;;;38.10;40.90;;;;;;5030033;28;19919;-66
2023/09/03 09:16:47;;;;;;;;;;;38.30;39.90;;;;;;5030017;28;20285;-66
2023/09/03 09:19:16;;;;;;;;;;;38.50;39.70;;;;;;5029922;28;19913;-67
2023/09/03 09:21:42;;;;;;;;;;;38.70;38.90;;;;;;5029868;28;20380;-67
2023/09/03 09:24:07;;;;;;;;;;;38.90;37.70;;;;;;5033980;28;19955;-66
2023/09/03 09:26:32;;;;;;;;;;;38.90;36.00;;;;;;5033825;28;20415;-67
2023/09/03 09:28:59;;;;;;;;;;;38.80;34.90;;;;;;5033852;28;20387;-67
2023/09/03 09:31:31;;;;;;;;;;;38.70;33.70;;;;;;5033988;28;19917;-66
2023/09/03 09:33:58;;;;;;;;;;;38.50;32.80;;;;;;5033679;28;19955;-66
2023/09/03 09:36:23;;;;;;;;;;;38.40;32.60;;;;;;5033794;28;19917;-66
2023/09/03 09:38:49;;;;;;;;;;;38.30;31.80;;;;;;5033528;28;19916;-66
2023/09/03 09:41:24;;;;;;;;;;;38.10;30.50;;;;;;5033662;28;20373;-66
2023/09/03 09:43:51;;;;;;;;;;;38.10;30.40;;;;;;5033671;28;19916;-66
2023/09/03 09:46:29;;;;;;;;;;;38.00;30.10;;;;;;5033801;28;19952;-66
2023/09/03 09:48:59;;;;;;;;;;;37.80;29.10;;;;;;5029685;28;20373;-67
2023/09/03 09:51:25;;;;;;;;;;;37.60;29.70;;;;;;5023852;28;20365;-66
2023/09/03 09:53:58;;;;;;;;;;;37.70;30.50;;;;;;5022676;28;19910;-67
2023/09/03 09:56:28;;;;;;;;;;;37.70;30.10;;;;;;5021895;28;19910;-66
2023/09/03 09:58:54;;;;;;;;;;;37.80;29.90;;;;;;5030085;28;19913;-66
2023/09/03 10:01:20;;;;;;;;;;;38.00;29.30;;;;;;5033724;28;19984;-66
2023/09/03 10:03:49;;;;;;;;;;;38.00;29.40;;;;;;5033072;28;19966;-66
2023/09/03 10:06:15;;;;;;;;;;;38.10;29.50;;;;;;5033105;28;19967;-67
2023/09/03 10:08:41;;;;;;;;;;;38.30;29.00;;;;;;5032851;28;20383;-67
2023/09/03 10:11:07;;;;;;;;;;;38.40;28.90;;;;;;5033555;28;19928;-66
2023/09/03 10:13:32;;;;;;;;;;;38.40;28.50;;;;;;5033009;28;19909;-67
2023/09/03 10:16:04;;;;;;;;;;;38.40;28.20;;;;;;5033218;28;19928;-67
2023/09/03 10:18:31;;;;;;;;;;;38.50;28.50;;;;;;5032893;28;20012;-67
2023/09/03 10:20:56;;;;;;;;;;;38.70;28.50;;;;;;5033324;28;19917;-67
2023/09/03 10:23:25;;;;;;;;;;;38.90;28.60;;;;;;5033153;28;20011;-66
2023/09/03 10:25:51;;;;;;;;;;;39.20;27.70;;;;;;5022527;28;20349;-67
2023/09/03 10:28:20;;;;;;;;;;;39.30;27.20;;;;;;5013163;28;19910;-66
2023/09/03 10:30:51;;;;;;;;;;;39.40;27.20;;;;;;5013710;28;19921;-66
2023/09/03 10:33:16;;;;;;;;;;;39.50;27.30;;;;;;5012722;28;19917;-67
2023/09/03 10:36:02;;;;;;;;;;;39.60;26.10;;;;;;5012236;28;19917;-67
2023/09/03 10:38:33;;;;;;;;;;;39.50;25.20;;;;;;5012887;28;19956;-67
2023/09/03 10:41:14;;;;;;;;;;;39.50;25.10;;;;;;5013112;28;19956;-67
2023/09/03 10:43:39;;;;;;;;;;;39.50;24.30;;;;;;5012618;28;20007;-67
2023/09/03 10:46:05;;;;;;;;;;;39.30;24.00;;;;;;5027045;28;20013;-67
2023/09/03 10:48:31;;;;;;;;;;;39.00;23.90;;;;;;5032049;28;19920;-67
2023/09/03 10:50:56;;;;;;;;;;;38.80;23.90;;;;;;5032771;28;20365;-67
2023/09/03 10:53:39;;;;;;;;;;;38.50;23.90;;;;;;5032382;28;19952;-66
2023/09/03 10:56:05;;;;;;;;;;;38.40;23.60;;;;;;5032737;28;19924;-67
2023/09/03 10:58:30;;;;;;;;;;;38.30;23.90;;;;;;5032183;28;19916;-66
2023/09/03 11:01:14;;;;;;;;;;;38.40;24.10;;;;;;5032524;28;20285;-67
2023/09/03 11:03:46;;;;;;;;;;;38.40;24.00;;;;;;5028177;28;19917;-67
2023/09/03 11:06:19;;;;;;;;;;;38.40;24.10;;;;;;5026106;28;19971;-67
2023/09/03 11:08:45;;;;;;;;;;;38.50;24.20;;;;;;5031641;28;20403;-67
2023/09/03 11:11:17;;;;;;;;;;;38.50;24.20;;;;;;5031935;28;19913;-67
2023/09/03 11:13:47;;;;;;;;;;;38.50;24.40;;;;;;5031732;28;20365;-67
2023/09/03 11:16:13;;;;;;;;;;;38.50;24.50;;;;;;5031847;28;19921;-67
2023/09/03 11:18:46;;;;;;;;;;;38.30;23.80;;;;;;5031752;28;20282;-67
2023/09/03 11:21:11;;;;;;;;;;;37.90;23.40;;;;;;5031903;28;19917;-66
2023/09/03 11:23:36;;;;;;;;;;;37.60;23.90;;;;;;5015071;28;19914;-67
2023/09/03 11:26:03;;;;;;;;;;;37.50;24.50;;;;;;5014706;28;19928;-67
2023/09/03 11:28:34;;;;;;;;;;;37.40;24.20;;;;;;5013025;28;19913;-67
2023/09/03 11:31:03;;;;;;;;;;;37.10;24.60;;;;;;5012273;28;19922;-68
2023/09/03 11:33:28;;;;;;;;;;;36.80;24.70;;;;;;5022295;28;19967;-68
2023/09/03 11:35:54;;;;;;;;;;;36.70;25.20;;;;;;5029725;28;20324;-68
2023/09/03 11:38:24;;;;;;;;;;;36.70;25.50;;;;;;5031520;28;19909;-67
2023/09/03 11:40:53;;;;;;;;;;;36.70;25.60;;;;;;5031734;28;20053;-68
2023/09/03 11:43:18;;;;;;;;;;;36.70;25.50;;;;;;5031544;28;19913;-67
2023/09/03 11:45:45;;;;;;;;;;;36.60;25.70;;;;;;5031100;28;19917;-68
2023/09/03 11:48:10;;;;;;;;;;;36.30;25.60;;;;;;5031225;28;19916;-68
2023/09/03 11:50:36;;;;;;;;;;;36.00;26.00;;;;;;5030115;28;19924;-68
2023/09/03 11:53:04;;;;;;;;;;;35.80;26.40;;;;;;5031222;28;20004;-67
2023/09/03 11:55:32;;;;;;;;;;;35.60;26.40;;;;;;5031442;28;20016;-68
2023/09/03 11:57:58;;;;;;;;;;;35.50;26.90;;;;;;5031128;28;19940;-68
2023/09/03 12:00:24;;;;;;;;;;;35.40;26.70;;;;;;5031444;28;20335;-68
2023/09/03 12:02:49;;;;;;;;;;;35.20;26.90;;;;;;5030694;28;20315;-68
2023/09/03 12:05:15;;;;;;;;;;;35.10;27.30;;;;;;5031621;28;19959;-68
2023/09/03 12:07:40;;;;;;;;;;;35.00;27.70;;;;;;5030873;28;19909;-67
2023/09/03 12:10:07;;;;;;;;;;;35.00;27.50;;;;;;5031220;28;20024;-66
2023/09/03 12:12:32;;;;;;;;;;;35.00;27.30;;;;;;5016809;28;20373;-66
2023/09/03 12:14:58;;;;;;;;;;;34.80;27.40;;;;;;5007855;28;19921;-65
2023/09/03 12:17:24;;;;;;;;;;;34.50;27.30;;;;;;5010901;28;19964;-65
2023/09/03 12:19:50;;;;;;;;;;;34.30;27.50;;;;;;5011386;28;19986;-65
2023/09/03 12:22:17;;;;;;;;;;;34.20;27.40;;;;;;5011530;28;20420;-64
2023/09/03 12:24:45;;;;;;;;;;;34.10;27.40;;;;;;5010848;28;19926;-65
2023/09/03 12:27:11;;;;;;;;;;;33.90;27.30;;;;;;5010839;28;20153;-64
2023/09/03 12:29:38;;;;;;;;;;;33.80;27.40;;;;;;5010702;28;19922;-64
2023/09/03 12:32:05;;;;;;;;;;;33.60;27.40;;;;;;5010729;28;19922;-64
2023/09/03 12:34:38;;;;;;;;;;;33.50;28.00;;;;;;5010617;28;19968;-65
2023/09/03 12:37:04;;;;;;;;;;;33.70;28.40;;;;;;5010765;28;20274;-65
2023/09/03 12:39:37;;;;;;;;;;;33.80;28.30;;;;;;5010345;28;19924;-64
2023/09/03 12:42:03;;;;;;;;;;;33.90;27.00;;;;;;5010753;28;20364;-65
2023/09/03 12:44:29;;;;;;;;;;;33.70;26.80;;;;;;5010524;28;20427;-65
2023/09/03 12:46:55;;;;;;;;;;;33.60;26.70;;;;;;5030361;28;19909;-65
2023/09/03 12:49:20;;;;;;;;;;;33.50;26.80;;;;;;5026662;28;20436;-65
2023/09/03 12:51:46;;;;;;;;;;;33.40;27.00;;;;;;5010226;28;19928;-65
2023/09/03 12:54:12;;;;;;;;;;;33.30;27.40;;;;;;5006806;28;19917;-65
2023/09/03 12:56:38;;;;;;;;;;;33.40;27.80;;;;;;5009776;28;19914;-65
2023/09/03 12:59:06;;;;;;;;;;;33.60;27.60;;;;;;5009526;28;19929;-65
2023/09/03 13:01:35;;;;;;;;;;;33.60;27.10;;;;;;5010234;28;19909;-66
2023/09/03 13:04:01;;;;;;;;;;;33.60;26.90;;;;;;5006768;28;19953;-65
2023/09/03 13:06:27;;;;;;;;;;;33.60;27.30;;;;;;5010384;28;20340;-64
2023/09/03 13:08:52;;;;;;;;;;;33.60;26.50;;;;;;5010189;28;19916;-65
2023/09/03 13:11:21;;;;;;;;;;;33.50;26.10;;;;;;5009941;28;20439;-65
2023/09/03 13:13:49;;;;;;;;;;;33.30;26.00;;;;;;5006873;28;19968;-65
2023/09/03 13:16:18;;;;;;;;;;;33.10;26.10;;;;;;5009732;28;20381;-66
2023/09/03 13:18:48;;;;;;;;;;;33.00;26.50;;;;;;5010057;28;19920;-65
2023/09/03 13:21:17;;;;;;;;;;;33.00;26.60;;;;;;5009881;28;20420;-64
2023/09/03 13:23:43;;;;;;;;;;;33.00;26.60;;;;;;5006472;28;19910;-65
2023/09/03 13:26:08;;;;;;;;;;;32.80;26.60;;;;;;5010188;28;20020;-65
2023/09/03 13:28:34;;;;;;;;;;;32.80;27.00;;;;;;5010179;28;19913;-65
2023/09/03 13:31:00;;;;;;;;;;;32.80;26.90;;;;;;5009984;28;19921;-64
2023/09/03 13:33:26;;;;;;;;;;;32.60;27.10;;;;;;5007961;28;19953;-65
2023/09/03 13:35:52;;;;;;;;;;;32.50;27.40;;;;;;5024882;28;20008;-65
2023/09/03 13:38:17;;;;;;;;;;;32.40;27.90;;;;;;5029709;28;19917;-65
2023/09/03 13:40:43;;;;;;;;;;;32.40;28.00;;;;;;5027927;28;19917;-65
2023/09/03 13:43:08;;;;;;;;;;;32.50;28.30;;;;;;5025089;28;20369;-65
2023/09/03 13:45:34;;;;;;;;;;;32.50;28.10;;;;;;5016449;28;20021;-65
2023/09/03 13:47:59;;;;;;;;;;;32.30;28.00;;;;;;5029457;28;19955;-65
2023/09/03 13:50:27;;;;;;;;;;;32.00;28.40;;;;;;5029564;28;19963;-65
2023/09/03 13:52:54;;;;;;;;;;;31.70;28.50;;;;;;5013933;28;19924;-67
2023/09/03 13:55:22;;;;;;;;;;;31.30;28.90;;;;;;5007379;28;19921;-64
2023/09/03 13:57:47;;;;;;;;;;;31.10;29.40;;;;;;5009371;28;19929;-66
2023/09/03 14:00:13;;;;;;;;;;;30.90;29.70;;;;;;5009900;28;19914;-65
2023/09/03 14:02:38;;;;;;;;;;;30.80;30.10;;;;;;5009608;28;19968;-65
2023/09/03 14:05:04;;;;;;;;;;;30.80;30.30;;;;;;5009804;28;20413;-67
2023/09/03 14:07:29;;;;;;;;;;;30.70;30.40;;;;;;5009562;28;20364;-65
2023/09/03 14:09:55;;;;;;;;;;;30.40;30.50;;;;;;5011625;28;19924;-65
2023/09/03 14:12:21;;;;;;;;;;;30.30;30.80;;;;;;5012846;28;19944;-63